Time;durP1;ratioP1;P1;durP2;ratioP2;P2;SDS_P1;SDS_P2;PMS_P1;PMS_P2;Temp;Humidity;BMP_temperature;BMP_pressure;BME280_temperature;BME280_humidity;BME280_pressure;Samples;Min_cycle;Max_cycle;Signal;HPM_P1;HPM_P2
2022/08/13 00:04:09;;;;;;;0.60;0.30;;;;;;;;;;21050882;28;20735;-85
2022/08/13 00:14:10;;;;;;;0.90;0.35;;;;;;;;;;21050555;28;20226;-85
2022/08/13 00:24:12;;;;;;;1.75;0.50;;;;;;;;;;21065335;28;20222;-82
2022/08/13 00:34:14;;;;;;;1.27;0.50;;;;;;;;;;21048991;28;20235;-82
2022/08/13 00:44:17;;;;;;;1.77;0.40;;;25.00;77.40;;;;;;21065302;28;20712;-80
2022/08/13 00:54:19;;;;;;;0.50;0.45;;;;;;;;;;21085449;28;20283;-81
2022/08/13 01:04:22;;;;;;;0.40;0.30;;;;;;;;;;21047714;28;20253;-82
2022/08/13 01:14:24;;;;;;;0.90;0.43;;;;;;;;;;21046897;28;20652;-85
2022/08/13 01:24:28;;;;;;;2.70;0.50;;;23.80;78.50;;;;;;21044826;28;20214;-84
2022/08/13 01:34:31;;;;;;;0.80;0.40;;;;;;;;;;21077738;28;20234;-83
2022/08/13 01:44:35;;;;;;;0.40;0.22;;;;;;;;;;21077722;28;20569;-82
2022/08/13 01:54:38;;;;;;;0.98;0.30;;;24.20;79.10;;;;;;21058652;28;20224;-85
2022/08/13 02:04:41;;;;;;;2.63;0.40;;;;;;;;;;20952645;28;20269;-84
2022/08/13 02:14:43;;;;;;;3.03;0.40;;;;;;;;;;20859035;28;20265;-84
2022/08/13 02:24:56;;;;;;;1.00;0.40;;;;;;;;;;20858928;28;20218;-86
2022/08/13 02:34:58;;;;;;;0.98;0.43;;;;;;;;;;20890329;28;20290;-83
2022/08/13 02:45:00;;;;;;;2.78;0.70;;;;;;;;;;20897208;28;20223;-83
2022/08/13 02:55:01;;;;;;;2.65;0.50;;;;;;;;;;20905647;28;20214;-82
2022/08/13 03:05:03;;;;;;;0.77;0.60;;;;;;;;;;20979823;28;20631;-84
2022/08/13 03:15:05;;;;;;;1.75;0.50;;;;;;;;;;21039026;28;20262;-83
2022/08/13 03:25:07;;;;;;;0.98;0.50;;;;;;;;;;21037792;28;20208;-83
2022/08/13 03:35:14;;;;;;;1.70;0.60;;;23.20;82.20;;;;;;21038181;28;20231;-83
2022/08/13 03:45:17;;;;;;;1.08;0.60;;;23.10;82.50;;;;;;21059653;28;20798;-83
2022/08/13 03:55:18;;;;;;;1.13;0.50;;;;;;;;;;21035496;28;20279;-84
2022/08/13 04:05:22;;;;;;;4.30;0.70;;;22.70;76.50;;;;;;21043480;28;20213;-82
2022/08/13 04:15:24;;;;;;;2.45;0.50;;;;;;;;;;20980669;28;20235;-82
2022/08/13 04:25:26;;;;;;;0.67;0.37;;;;;;;;;;20994529;28;20470;-82
2022/08/13 04:35:27;;;;;;;3.45;0.50;;;;;;;;;;20957150;28;20260;-81
2022/08/13 04:45:30;;;;;;;1.38;0.50;;;;;;;;;;20947039;28;20264;-81
2022/08/13 04:55:32;;;;;;;1.50;0.50;;;22.70;83.10;;;;;;20897233;28;20260;-82
2022/08/13 05:05:35;;;;;;;0.40;0.38;;;;;;;;;;20887596;28;20807;-82
2022/08/13 05:15:39;;;;;;;1.15;0.60;;;;;;;;;;21022176;28;20234;-82
2022/08/13 05:25:43;;;;;;;2.63;0.45;;;;;;;;;;21038339;28;20272;-82
2022/08/13 05:35:48;;;;;;;0.38;0.38;;;;;;;;;;21042306;28;20558;-81
2022/08/13 05:45:55;;;;;;;4.10;0.50;;;;;;;;;;21054498;28;20273;-84
2022/08/13 05:55:56;;;;;;;1.25;0.60;;;;;;;;;;21009049;28;20304;-78
2022/08/13 06:05:59;;;;;;;1.45;0.40;;;;;;;;;;20995773;28;20223;-80
2022/08/13 06:16:03;;;;;;;0.60;0.40;;;;;;;;;;21010245;28;20342;-79
2022/08/13 06:26:10;;;;;;;0.20;0.20;;;23.30;85.60;;;;;;21066040;28;20223;-78
2022/08/13 06:36:14;;;;;;;1.65;0.50;;;;;;;;;;21082512;28;20224;-78
2022/08/13 06:46:17;;;;;;;0.65;0.45;;;;;;;;;;21056175;28;20216;-79
2022/08/13 06:56:22;;;;;;;1.05;0.60;;;23.80;82.10;;;;;;21072518;28;20220;-79
2022/08/13 07:06:26;;;;;;;2.78;1.27;;;;;;;;;;21055888;28;20214;-79
2022/08/13 07:16:30;;;;;;;0.95;0.38;;;24.20;85.00;;;;;;21052746;28;20280;-79
2022/08/13 07:26:33;;;;;;;4.55;0.60;;;24.50;77.40;;;;;;21055381;28;20204;-79
2022/08/13 07:36:40;;;;;;;5.38;0.68;;;;;;;;;;21070345;28;20251;-78
2022/08/13 07:46:42;;;;;;;0.40;0.30;;;21.60;80.40;;;;;;21084296;28;20218;-79
2022/08/13 07:56:47;;;;;;;0.40;0.38;;;;;;;;;;21084629;28;20243;-80
2022/08/13 08:06:49;;;;;;;0.40;0.30;;;;;;;;;;21067150;28;20271;-80
2022/08/13 08:16:51;;;;;;;1.00;0.40;;;;;;;;;;21065884;28;20231;-80
2022/08/13 08:26:55;;;;;;;2.17;0.40;;;;;;;;;;21064196;28;20214;-78
2022/08/13 08:36:57;;;;;;;0.45;0.30;;;;;;;;;;21082728;28;20218;-78
2022/08/13 08:47:00;;;;;;;3.33;0.57;;;26.30;75.70;;;;;;21062315;28;20224;-79
2022/08/13 08:57:04;;;;;;;1.23;0.40;;;;;;;;;;21078833;28;20567;-80
2022/08/13 09:07:06;;;;;;;0.93;0.40;;;;;;;;;;21061457;28;20214;-79
2022/08/13 09:17:07;;;;;;;0.77;0.50;;;25.90;74.90;;;;;;21044144;28;20231;-82
2022/08/13 09:27:09;;;;;;;0.40;0.35;;;;;;;;;;21042376;28;20276;-79
2022/08/13 09:37:12;;;;;;;4.30;0.60;;;;;;;;;;21041798;28;20253;-80
2022/08/13 09:47:14;;;;;;;1.23;0.50;;;;;;;;;;21076847;28;20252;-80
2022/08/13 09:57:20;;;;;;;0.60;0.50;;;;;;;;;;21074244;28;20697;-80
2022/08/13 10:07:22;;;;;;;3.55;0.43;;;;;;;;;;21073995;28;20212;-80
2022/08/13 10:17:25;;;;;;;1.13;0.45;;;;;;;;;;21056361;28;20232;-79
2022/08/13 10:27:27;;;;;;;0.82;0.52;;;;;;;;;;21072369;28;20214;-80
2022/08/13 10:37:29;;;;;;;0.70;0.50;;;;;;;;;;21038815;28;20292;-80
2022/08/13 10:47:31;;;;;;;0.80;0.52;;;;;;;;;;21055312;28;20272;-80
2022/08/13 10:57:33;;;;;;;1.55;0.57;;;;;;;;;;21071943;28;20227;-81
2022/08/13 11:07:36;;;;;;;0.70;0.50;;;;;;;;;;21081307;28;20256;-79
2022/08/13 11:17:40;;;;;;;0.88;0.57;;;;;;;;;;21086902;28;20296;-80
2022/08/13 11:27:41;;;;;;;0.45;0.40;;;;;;;;;;21069344;28;20207;-81
2022/08/13 11:37:43;;;;;;;0.38;0.38;;;;;;;;;;21087044;28;20230;-80
2022/08/13 11:47:45;;;;;;;0.90;0.50;;;;;;;;;;21051846;28;20216;-79
2022/08/13 11:57:46;;;;;;;0.55;0.40;;;;;;;;;;21084355;28;20265;-81
2022/08/13 12:07:48;;;;;;;2.70;0.60;;;;;;;;;;21066819;28;20618;-82
2022/08/13 12:17:50;;;;;;;0.88;0.30;;;;;;;;;;21047905;28;20794;-79
2022/08/13 12:28:25;;;;;;;0.68;0.40;;;30.30;68.90;;;;;;21083000;28;20220;-79
2022/08/13 12:38:27;;;;;;;0.68;0.40;;;;;;;;;;21064861;28;20246;-81
2022/08/13 12:48:31;;;;;;;2.60;0.40;;;;;;;;;;21063230;28;20219;-81
2022/08/13 12:58:32;;;;;;;2.88;0.40;;;;;;;;;;21063548;28;20265;-80
2022/08/13 13:08:34;;;;;;;0.50;0.30;;;;;;;;;;21079320;28;20211;-81
2022/08/13 13:18:36;;;;;;;0.75;0.50;;;;;;;;;;21061330;28;20224;-80
2022/08/13 13:28:38;;;;;;;0.50;0.40;;;;;;;;;;21077966;28;20678;-80
2022/08/13 13:38:40;;;;;;;0.45;0.30;;;;;;;;;;21096698;28;20236;-81
2022/08/13 13:48:42;;;;;;;0.40;0.32;;;31.30;61.30;;;;;;21076783;28;20205;-80
2022/08/13 13:58:44;;;;;;;0.50;0.32;;;;;;;;;;21059711;28;20232;-79
2022/08/13 14:08:48;;;;;;;0.80;0.30;;;;;;;;;;21059378;28;20286;-80
2022/08/13 14:18:50;;;;;;;0.75;0.50;;;31.80;62.60;;;;;;21059759;28;20701;-81
2022/08/13 14:28:55;;;;;;;0.70;0.30;;;;;;;;;;21076128;28;20213;-81
2022/08/13 14:38:57;;;;;;;0.55;0.40;;;;;;;;;;21057960;28;20278;-80
2022/08/13 14:48:59;;;;;;;0.40;0.30;;;32.00;61.70;;;;;;21076675;28;20217;-80
2022/08/13 14:59:01;;;;;;;0.50;0.30;;;;;;;;;;21058417;28;20224;-81
2022/08/13 15:09:04;;;;;;;1.45;0.75;;;32.10;59.20;;;;;;21036155;28;20239;-79
2022/08/13 15:19:07;;;;;;;0.95;0.50;;;;;;;;;;21086960;28;20771;-82
2022/08/13 15:29:09;;;;;;;0.55;0.40;;;;;;;;;;21072875;28;20205;-81
2022/08/13 15:39:11;;;;;;;1.00;0.40;;;;;;;;;;21114774;28;20331;-81
2022/08/13 15:49:13;;;;;;;0.50;0.47;;;;;;;;;;21054463;28;20340;-79
2022/08/13 15:59:17;;;;;;;0.40;0.35;;;32.30;58.50;;;;;;21014146;28;20548;-79
2022/08/13 16:09:19;;;;;;;1.13;0.43;;;;;;;;;;20899642;28;20221;-78
2022/08/13 16:19:23;;;;;;;0.30;0.30;;;;;;;;;;21033834;28;20632;-81
2022/08/13 16:29:33;;;;;;;0.50;0.32;;;32.00;61.80;;;;;;20997916;28;20221;-80
2022/08/13 16:39:35;;;;;;;0.90;0.30;;;;;;;;;;20998203;28;20266;-80
2022/08/13 16:49:38;;;;;;;0.70;0.40;;;31.10;55.40;;;;;;20978638;28;20210;-80
2022/08/13 16:59:43;;;;;;;3.40;0.55;;;30.90;60.30;;;;;;20973138;28;20237;-80
2022/08/13 17:09:45;;;;;;;0.85;0.55;;;;;;;;;;20957856;28;20217;-80
2022/08/13 17:19:49;;;;;;;0.50;0.40;;;;;;;;;;20975456;28;20245;-80
2022/08/13 17:29:51;;;;;;;0.90;0.40;;;;;;;;;;21010448;28;20217;-80
2022/08/13 17:39:53;;;;;;;1.15;0.40;;;;;;;;;;21022572;28;20258;-79
2022/08/13 17:49:59;;;;;;;0.60;0.30;;;;;;;;;;20976992;28;20228;-79
2022/08/13 18:00:01;;;;;;;0.60;0.40;;;30.00;55.40;;;;;;20984842;28;20221;-80
2022/08/13 18:10:03;;;;;;;0.70;0.40;;;;;;;;;;21017662;28;20234;-79
2022/08/13 18:20:07;;;;;;;0.70;0.40;;;;;;;;;;20909838;28;20233;-79
2022/08/13 18:30:13;;;;;;;1.45;0.60;;;;;;;;;;20908430;28;20217;-78
2022/08/13 18:40:19;;;;;;;1.48;0.40;;;;;;;;;;20905625;28;20797;-79
2022/08/13 18:50:26;;;;;;;0.70;0.40;;;;;;;;;;20907327;28;20252;-79
2022/08/13 19:00:27;;;;;;;1.25;0.43;;;;;;;;;;20905457;28;20275;-78
2022/08/13 19:10:30;;;;;;;1.42;0.45;;;;;;;;;;20920690;28;20267;-79
2022/08/13 19:20:33;;;;;;;1.10;0.40;;;;;;;;;;20911133;28;20232;-79
2022/08/13 19:30:35;;;;;;;1.25;0.55;;;27.90;61.80;;;;;;21000917;28;20224;-84
2022/08/13 19:40:38;;;;;;;1.35;0.50;;;;;;;;;;20984491;28;20281;-82
2022/08/13 19:50:40;;;;;;;4.07;0.80;;;;;;;;;;21004514;28;20216;-82
2022/08/13 20:00:45;;;;;;;4.22;0.80;;;;;;;;;;21028551;28;20245;-83
2022/08/13 20:10:49;;;;;;;3.60;0.95;;;;;;;;;;21041503;28;20371;-80
2022/08/13 20:20:51;;;;;;;4.50;0.82;;;;;;;;;;20897538;28;20291;-81
2022/08/13 20:30:52;;;;;;;1.67;0.60;;;;;;;;;;20900990;28;20217;-81
2022/08/13 20:40:54;;;;;;;1.13;0.63;;;;;;;;;;20958957;28;20250;-83
2022/08/13 20:50:56;;;;;;;0.82;0.47;;;;;;;;;;21001488;28;20281;-81
2022/08/13 21:00:58;;;;;;;0.85;0.57;;;;;;;;;;20996371;28;20281;-83
2022/08/13 21:11:00;;;;;;;1.00;0.50;;;;;;;;;;20977367;28;20286;-81
2022/08/13 21:21:02;;;;;;;1.40;0.63;;;;;;;;;;20944651;28;20573;-82
2022/08/13 21:31:05;;;;;;;1.38;0.80;;;;;;;;;;20993831;28;20200;-83
2022/08/13 21:41:06;;;;;;;2.70;0.60;;;;;;;;;;20961346;28;20231;-85
2022/08/13 21:51:08;;;;;;;1.15;0.70;;;;;;;;;;20979908;28;20250;-85
2022/08/13 22:01:13;;;;;;;3.13;0.70;;;;;;;;;;20972165;28;20297;-82
2022/08/13 22:11:15;;;;;;;1.20;0.70;;;;;;;;;;21042360;28;20608;-83
2022/08/13 22:21:17;;;;;;;1.33;0.80;;;;;;;;;;21041286;28;20221;-84
2022/08/13 22:31:20;;;;;;;1.67;0.73;;;;;;;;;;21039919;28;20284;-83
2022/08/13 22:41:22;;;;;;;2.67;1.02;;;;;;;;;;21056783;28;20261;-82
2022/08/13 22:51:24;;;;;;;2.22;0.70;;;;;;;;;;20980046;28;20834;-83
2022/08/13 23:01:26;;;;;;;1.35;0.55;;;;;;;;;;20895339;28;20227;-83
2022/08/13 23:11:28;;;;;;;4.88;1.00;;;;;;;;;;20889118;28;20690;-82
2022/08/13 23:21:30;;;;;;;1.30;0.60;;;24.00;79.50;;;;;;20904230;28;20233;-81
2022/08/13 23:31:32;;;;;;;1.30;0.70;;;;;;;;;;20921652;28;20232;-82
2022/08/13 23:41:34;;;;;;;4.18;0.90;;;24.90;72.30;;;;;;20937967;28;20265;-80
2022/08/13 23:51:37;;;;;;;0.90;0.57;;;;;;;;;;21059391;28;20761;-83
